createdAt,value
2022-11-05T00:00:55.008Z,94953.20
2022-11-05T00:03:44.635Z,94957.00
2022-11-05T00:06:31.107Z,94955.91
2022-11-05T00:09:03.149Z,94968.28
2022-11-05T00:11:49.978Z,94962.87
2022-11-05T00:14:37.701Z,94962.70
2022-11-05T00:17:07.560Z,94949.92
2022-11-05T00:19:38.655Z,94969.66
2022-11-05T00:22:28.899Z,94963.91
2022-11-05T00:25:16.604Z,94958.00
2022-11-05T00:27:46.453Z,94948.06
2022-11-05T00:30:18.180Z,94953.17
2022-11-05T00:32:51.581Z,94963.64
2022-11-05T00:35:23.017Z,94937.63
2022-11-05T00:37:56.195Z,94952.68
2022-11-05T00:40:24.869Z,94962.31
2022-11-05T00:43:11.385Z,94911.73
2022-11-05T00:45:41.106Z,94934.17
2022-11-05T00:48:28.600Z,94955.19
2022-11-05T00:50:57.217Z,94943.20
2022-11-05T00:53:27.407Z,94950.51
2022-11-05T00:55:56.195Z,94928.03
2022-11-05T00:58:29.175Z,94933.37
2022-11-05T01:01:01.783Z,94922.55
2022-11-05T01:03:37.770Z,94932.73
2022-11-05T01:06:13.675Z,94945.25
2022-11-05T01:08:47.097Z,94929.67
2022-11-05T01:11:22.033Z,94931.54
2022-11-05T01:13:50.672Z,94920.34
2022-11-05T01:16:19.375Z,94918.25
2022-11-05T01:18:48.174Z,94907.74
2022-11-05T01:21:16.864Z,94902.33
2022-11-05T01:23:49.087Z,94911.93
2022-11-05T01:26:20.488Z,94907.59
2022-11-05T01:28:56.746Z,94905.41
2022-11-05T01:31:29.155Z,94900.80
2022-11-05T01:33:57.952Z,94893.50
2022-11-05T01:36:26.662Z,94889.13
2022-11-05T01:38:55.372Z,94894.80
2022-11-05T01:41:23.970Z,94888.63
2022-11-05T01:43:59.703Z,94890.98
2022-11-05T01:46:37.048Z,94882.00
2022-11-05T01:49:20.617Z,94881.84
2022-11-05T01:51:49.971Z,94883.14
2022-11-05T01:54:22.055Z,94879.25
2022-11-05T01:56:53.647Z,94877.81
2022-11-05T01:59:25.332Z,94863.84
2022-11-05T02:01:55.814Z,94866.41
2022-11-05T02:04:39.331Z,94860.66
2022-11-05T02:07:10.431Z,94861.33
2022-11-05T02:09:42.130Z,94849.84
2022-11-05T02:12:14.252Z,94859.25
2022-11-05T02:14:43.070Z,94856.59
2022-11-05T02:17:14.931Z,94859.25
2022-11-05T02:19:49.338Z,94865.29
2022-11-05T02:22:45.191Z,94874.61
2022-11-05T02:25:35.912Z,94866.05
2022-11-05T02:28:09.985Z,94852.16
2022-11-05T02:30:50.572Z,94864.63
2022-11-05T02:33:52.083Z,94868.95
2022-11-05T02:36:26.241Z,94867.17
2022-11-05T02:39:25.690Z,94863.18
2022-11-05T02:42:05.241Z,94842.98
2022-11-05T02:44:53.867Z,94859.97
2022-11-05T02:47:44.762Z,94857.48
2022-11-05T02:50:36.837Z,94853.61
2022-11-05T02:53:11.282Z,94859.66
2022-11-05T02:55:51.863Z,94870.05
2022-11-05T02:58:20.940Z,94873.70
2022-11-05T03:00:59.838Z,94870.47
2022-11-05T03:03:33.798Z,94867.83
2022-11-05T03:06:41.429Z,94860.78
2022-11-05T03:09:28.558Z,94869.16
2022-11-05T03:12:18.981Z,94860.98
2022-11-05T03:14:55.398Z,94863.13
2022-11-05T03:17:29.883Z,94876.16
2022-11-05T03:20:04.389Z,94866.23
2022-11-05T03:22:37.683Z,94857.78
2022-11-05T03:25:09.333Z,94864.02
2022-11-05T03:27:41.037Z,94869.78
2022-11-05T03:30:13.719Z,94879.70
2022-11-05T03:32:48.778Z,94876.16
2022-11-05T03:35:33.012Z,94870.21
2022-11-05T03:38:08.578Z,94874.28
2022-11-05T03:40:40.301Z,94881.80
2022-11-05T03:43:17.333Z,94890.22
2022-11-05T03:45:52.998Z,94893.30
2022-11-05T03:48:23.817Z,94901.08
2022-11-05T03:51:07.844Z,94899.95
2022-11-05T03:53:42.133Z,94901.86
2022-11-05T03:56:29.970Z,94900.83
2022-11-05T03:59:02.436Z,94905.88
2022-11-05T04:01:33.717Z,94903.98
2022-11-05T04:04:04.501Z,94907.02
2022-11-05T04:10:02.208Z,94920.27
2022-11-05T04:12:50.987Z,94915.20
2022-11-05T04:15:24.468Z,94920.52
2022-11-05T04:17:55.012Z,94911.08
2022-11-05T04:20:45.920Z,94905.21
2022-11-05T04:23:33.777Z,94906.15
2022-11-05T04:26:02.497Z,94907.66
2022-11-05T04:28:32.901Z,94916.23
2022-11-05T04:31:07.785Z,94916.41
2022-11-05T04:33:45.325Z,94918.33
2022-11-05T04:36:17.134Z,94929.67
2022-11-05T04:38:46.787Z,94941.08
2022-11-05T04:41:28.045Z,94931.05
2022-11-05T04:43:56.547Z,94939.30
2022-11-05T04:46:25.336Z,94943.31
2022-11-05T04:48:53.991Z,94945.44
2022-11-05T04:51:25.001Z,94944.23
2022-11-05T04:53:53.791Z,94940.77
2022-11-05T04:56:27.938Z,94939.10
2022-11-05T04:58:56.656Z,94938.75
2022-11-05T05:01:27.448Z,94928.52
2022-11-05T05:03:56.658Z,94927.49
2022-11-05T05:06:26.275Z,94923.91
2022-11-05T05:08:54.932Z,94931.17
2022-11-05T05:11:24.530Z,94931.56
2022-11-05T05:13:53.148Z,94942.02
2022-11-05T05:16:24.754Z,94941.52
2022-11-05T05:18:53.646Z,94945.07
2022-11-05T05:21:42.202Z,94949.25
2022-11-05T05:24:19.535Z,94960.21
2022-11-05T05:26:50.203Z,94955.34
2022-11-05T05:29:22.688Z,94959.22
2022-11-05T05:31:51.327Z,94965.86
2022-11-05T05:34:21.614Z,94951.10
2022-11-05T05:36:50.204Z,94975.13
2022-11-05T05:39:18.802Z,94980.12
2022-11-05T05:41:47.423Z,94983.36
2022-11-05T05:44:16.103Z,94980.11
2022-11-05T05:46:44.728Z,94984.68
2022-11-05T05:49:16.201Z,94990.12
2022-11-05T05:51:46.358Z,94989.03
2022-11-05T05:54:15.091Z,94981.82
2022-11-05T05:56:52.199Z,94989.38
2022-11-05T05:59:20.855Z,94996.30
2022-11-05T06:01:49.666Z,94991.03
2022-11-05T06:04:18.302Z,94995.31
2022-11-05T06:06:47.011Z,95004.30
2022-11-05T06:09:20.053Z,95003.03
2022-11-05T06:11:48.694Z,95000.40
2022-11-05T06:17:04.905Z,94994.14
2022-11-05T06:19:33.518Z,94997.72
2022-11-05T06:22:02.353Z,94993.72
2022-11-05T06:24:32.037Z,94998.19
2022-11-05T06:27:23.037Z,95000.11
2022-11-05T06:29:52.066Z,95000.45
2022-11-05T06:32:23.840Z,94997.26
2022-11-05T06:34:52.816Z,94996.86
2022-11-05T06:37:27.685Z,94991.88
2022-11-05T06:40:01.730Z,95002.92
2022-11-05T06:42:30.869Z,94993.34
2022-11-05T06:45:02.419Z,94990.14
2022-11-05T06:47:31.628Z,94986.47
2022-11-05T06:50:02.055Z,94982.66
2022-11-05T06:52:40.795Z,94979.75
2022-11-05T06:55:08.858Z,94978.23
2022-11-05T06:57:39.171Z,94974.80
2022-11-05T07:00:09.257Z,94972.83
2022-11-05T07:02:38.212Z,94969.73
2022-11-05T07:05:15.678Z,94977.52
2022-11-05T07:07:47.753Z,94984.39
2022-11-05T07:10:19.601Z,94978.64
2022-11-05T07:13:08.353Z,94965.65
2022-11-05T07:15:40.847Z,94957.61
2022-11-05T07:18:11.278Z,94969.03
2022-11-05T07:20:41.619Z,94960.83
2022-11-05T07:23:16.092Z,94963.56
2022-11-05T07:28:47.043Z,94960.37
2022-11-05T07:31:17.482Z,94960.45
2022-11-05T07:33:53.977Z,94959.85
2022-11-05T07:36:27.389Z,94965.41
2022-11-05T07:39:00.369Z,94966.91
2022-11-05T07:47:18.800Z,94944.30
2022-11-05T07:49:49.399Z,94939.91
2022-11-05T07:52:58.767Z,94939.15
2022-11-05T07:55:36.616Z,94937.34
2022-11-05T08:10:54.157Z,94934.35
2022-11-05T08:13:57.122Z,94929.69
2022-11-05T08:19:40.042Z,94929.05
2022-11-05T08:22:18.072Z,94932.89
2022-11-05T08:24:47.033Z,94931.08
2022-11-05T08:27:57.004Z,94933.89
2022-11-05T08:30:49.171Z,94927.33
2022-11-05T08:33:20.629Z,94926.64
2022-11-05T08:39:10.627Z,94920.80
2022-11-05T08:45:23.704Z,94911.68
2022-11-05T08:51:00.303Z,94914.63
2022-11-05T08:53:39.120Z,94908.00
2022-11-05T08:56:07.054Z,94915.39
2022-11-05T08:59:03.442Z,94911.55
2022-11-05T09:01:36.180Z,94910.30
2022-11-05T09:10:30.686Z,94903.88
2022-11-05T09:13:17.896Z,94903.48
2022-11-05T09:15:53.231Z,94892.53
2022-11-05T09:18:28.143Z,94890.42
2022-11-05T09:20:58.667Z,94890.18
2022-11-05T09:23:41.415Z,94900.73
2022-11-05T09:26:02.883Z,94894.16
2022-11-05T09:28:32.832Z,94897.14
2022-11-05T09:31:06.398Z,94893.31
2022-11-05T09:33:37.669Z,94895.00
2022-11-05T09:36:12.613Z,94886.27
2022-11-05T09:41:48.266Z,94875.09
2022-11-05T09:44:56.068Z,94880.66
2022-11-05T09:54:05.850Z,94881.83
2022-11-05T09:57:10.937Z,94878.40
2022-11-05T10:03:01.077Z,94875.37
2022-11-05T10:06:20.563Z,94870.22
2022-11-05T10:11:57.752Z,94868.34
2022-11-05T10:17:53.958Z,94861.55
2022-11-05T10:29:36.735Z,94851.02
2022-11-05T10:32:21.558Z,94856.02
2022-11-05T10:35:03.086Z,94850.06
2022-11-05T10:49:09.134Z,94848.30
2022-11-05T10:52:03.651Z,94848.11
2022-11-05T11:01:55.113Z,94843.05
2022-11-05T11:13:38.208Z,94825.94
2022-11-05T11:16:31.156Z,94822.82
2022-11-05T11:19:07.849Z,94820.39
2022-11-05T11:25:18.509Z,94825.48
2022-11-05T11:30:36.311Z,94820.27
2022-11-05T11:33:15.489Z,94816.19
2022-11-05T11:35:48.543Z,94815.88
2022-11-05T11:44:52.283Z,94814.36
2022-11-05T11:57:54.968Z,94819.11
2022-11-05T12:07:43.821Z,94807.74
2022-11-05T12:31:50.661Z,94796.08
2022-11-05T12:38:20.591Z,94795.39
2022-11-05T12:41:14.116Z,94791.93
2022-11-05T13:03:32.933Z,94790.97
2022-11-05T14:41:16.595Z,94807.09
2022-11-05T14:44:02.822Z,94809.49
2022-11-05T15:00:01.351Z,94809.80
2022-11-05T15:02:35.749Z,94813.13
2022-11-05T15:05:40.773Z,94815.59
2022-11-05T15:15:07.585Z,94805.00
2022-11-05T15:18:07.603Z,94810.45
2022-11-05T15:20:57.741Z,94814.08
2022-11-05T15:23:29.638Z,94816.24
2022-11-05T15:34:38.091Z,94818.95
2022-11-05T15:59:56.999Z,94809.78
2022-11-05T16:51:22.153Z,94833.86
2022-11-05T16:53:56.887Z,94839.34
2022-11-05T17:05:10.316Z,94850.30
2022-11-05T17:07:50.682Z,94853.73
2022-11-05T17:10:23.501Z,94850.11
2022-11-05T17:12:52.410Z,94850.23
2022-11-05T17:15:33.802Z,94847.02
2022-11-05T17:36:34.066Z,94849.31
2022-11-05T17:42:15.711Z,94842.60
2022-11-05T17:44:54.308Z,94851.22
2022-11-05T17:48:16.019Z,94851.06
2022-11-05T17:50:39.872Z,94846.22
2022-11-05T17:56:22.152Z,94846.22
2022-11-05T17:59:19.931Z,94842.08
2022-11-05T18:14:07.626Z,94835.14
2022-11-05T18:19:09.144Z,94835.51
2022-11-05T18:19:37.971Z,94844.07
2022-11-05T18:42:58.028Z,94851.56
2022-11-05T18:48:21.149Z,94841.07
2022-11-05T19:23:52.702Z,94855.13
2022-11-05T19:26:34.853Z,94853.64
2022-11-05T19:29:05.649Z,94849.17
2022-11-05T19:41:04.130Z,94861.69
2022-11-05T19:52:45.519Z,94862.45
2022-11-05T20:01:11.116Z,94862.08
2022-11-05T20:03:40.160Z,94857.70
2022-11-05T20:10:09.885Z,94869.77
2022-11-05T20:24:41.306Z,94888.36
2022-11-05T20:32:35.831Z,94888.91
2022-11-05T20:48:07.977Z,94871.64
2022-11-05T20:57:03.547Z,94894.72
2022-11-05T21:02:38.442Z,94892.64
2022-11-05T22:24:07.411Z,94898.12
2022-11-05T22:26:38.145Z,94895.61
2022-11-05T22:29:16.813Z,94899.41
2022-11-05T22:31:56.116Z,94902.52
2022-11-05T22:34:39.637Z,94903.62
2022-11-05T22:37:25.434Z,94900.39
2022-11-05T22:39:59.910Z,94897.37
2022-11-05T22:42:40.947Z,94902.31
2022-11-05T22:45:18.444Z,94904.25
2022-11-05T22:47:50.483Z,94908.07
2022-11-05T22:50:29.600Z,94899.65
2022-11-05T22:53:06.141Z,94895.27
2022-11-05T22:55:39.014Z,94895.09
2022-11-05T22:58:25.652Z,94893.37
2022-11-05T23:00:56.060Z,94896.23
2022-11-05T23:03:26.875Z,94906.17
2022-11-05T23:06:06.755Z,94893.37
2022-11-05T23:08:56.506Z,94904.06
2022-11-05T23:11:39.312Z,94901.20
2022-11-05T23:14:23.978Z,94898.16
2022-11-05T23:17:10.821Z,94905.95
2022-11-05T23:20:05.058Z,94901.19
2022-11-05T23:22:56.077Z,94903.47
2022-11-05T23:25:28.622Z,94914.30
2022-11-05T23:28:00.439Z,94906.45
2022-11-05T23:30:31.282Z,94919.84
2022-11-05T23:33:00.370Z,94924.07
2022-11-05T23:35:47.178Z,94919.49
2022-11-05T23:38:35.431Z,94923.29
2022-11-05T23:41:23.103Z,94918.69
2022-11-05T23:44:11.455Z,94921.36
2022-11-05T23:47:00.692Z,94921.94
2022-11-05T23:49:32.832Z,94915.27
2022-11-05T23:52:08.699Z,94914.72
2022-11-05T23:54:39.221Z,94908.78
2022-11-05T23:57:08.190Z,94909.37
2022-11-05T23:59:40.208Z,94905.36
